Data for 09/15/2006

Time Sea-Level Adjusted Pressure Absolute Pressure Temperature Relative Humidity Dew Point   
(mb) (inHg) (mb) (inHg) (C) (F) (%) (C) (F)
00:05 1008 29.77 837 24.72 9 48.2 73 4.4 40
00:10 1007 29.74 837 24.72 8.9 48 73 4.3 39.8
00:15 1007 29.74 837 24.72 8.9 48.1 73 4.4 39.9
00:20 1007 29.74 836 24.69 9.1 48.3 73 4.4 40
00:25 1007 29.74 836 24.69 9.1 48.3 72 4.4 39.8
00:30 1007 29.74 836 24.69 9 48.2 72 4.2 39.6
00:35 1007 29.74 836 24.69 9 48.2 72 4.2 39.5
00:40 1007 29.74 836 24.69 9.1 48.3 72 4.2 39.6
00:45 1007 29.74 836 24.69 9.1 48.3 71 4.1 39.4
00:50 1007 29.74 836 24.69 9 48.3 71 4 39.3
00:55 1007 29.74 836 24.69 9 48.2 71 4 39.3
01:00 1007 29.74 836 24.69 8.9 48.1 71 4 39.2
01:05 1007 29.74 836 24.69 8.9 48.1 71 4 39.1
01:10 1007 29.74 836 24.69 8.9 48 71 4 39.1
01:15 1007 29.74 836 24.69 8.9 48 71 4 39.2
01:20 1007 29.74 836 24.69 9 48.1 71 4 39.2
01:25 1007 29.74 836 24.69 8.9 48 71 4 39.2
01:30 1007 29.74 836 24.69 8.9 48.1 71 4 39.2
01:35 1007 29.74 836 24.69 9 48.1 71 3.9 39.1
01:40 1007 29.74 836 24.69 9.1 48.3 70 4 39.1
01:45 1007 29.74 836 24.69 9.3 48.7 69 4 39.2
01:50 1007 29.74 836 24.69 9.5 49.1 71 4.6 40.2
01:55 1007 29.74 836 24.69 9.5 49.2 73 4.9 40.8
02:00 1007 29.74 836 24.69 9.7 49.4 77 5.8 42.5
02:05 1006 29.71 836 24.69 9.9 49.9 77 6.1 42.9
02:10 1006 29.71 836 24.69 10.1 50.1 77 6.3 43.3
02:15 1006 29.71 836 24.69 10.1 50.2 78 6.4 43.5
02:20 1007 29.74 836 24.69 10.1 50.2 78 6.5 43.7
02:25 1007 29.74 836 24.69 9.8 49.6 73 5.1 41.2
02:30 1007 29.74 836 24.69 9.2 48.5 72 4.4 40
02:35 1007 29.74 836 24.69 8.8 47.9 74 4.4 39.9
02:40 1007 29.74 836 24.69 8.7 47.6 75 4.4 40
02:45 1007 29.74 836 24.69 8.6 47.4 76 4.6 40.3
02:50 1007 29.74 836 24.69 8.3 47 77 4.6 40.3
02:55 1007 29.74 836 24.69 8.3 46.9 77 4.5 40.2
03:00 1007 29.74 836 24.69 8.6 47.5 77 4.8 40.6
03:05 1007 29.74 836 24.69 8.7 47.6 77 4.9 40.7
03:10 1007 29.74 836 24.69 8.8 47.9 76 4.9 40.7
03:15 1007 29.74 836 24.69 8.9 48 76 4.9 40.7
03:20 1007 29.74 836 24.69 8.9 47.9 76 4.9 40.9
03:25 1007 29.74 836 24.69 8.7 47.7 77 4.9 40.8
03:30 1007 29.74 836 24.69 8.8 47.8 77 4.9 40.8
03:35 1007 29.74 836 24.69 8.7 47.6 77 5 41
03:40 1007 29.74 836 24.69 8.6 47.5 78 5 40.9
03:45 1007 29.74 836 24.69 8.4 47.1 78 4.8 40.7
03:50 1007 29.74 836 24.69 8.5 47.3 77 4.7 40.5
03:55 1007 29.74 836 24.69 8.7 47.7 76 4.8 40.6
04:00 1007 29.74 836 24.69 8.8 47.9 76 4.8 40.7
04:05 1007 29.74 836 24.69 8.9 47.9 76 4.9 40.8
04:10 1007 29.74 836 24.69 8.8 47.9 76 4.9 40.8
04:15 1007 29.74 836 24.69 8.6 47.6 78 5.1 41.2
04:20 1007 29.74 836 24.69 8.4 47 79 4.9 40.8
04:25 1007 29.74 836 24.69 8.6 47.5 77 4.9 40.8
04:30 1007 29.74 836 24.69 8.8 47.8 77 5 41
04:35 1007 29.74 836 24.69 8.7 47.7 78 5 41.1
04:40 1007 29.74 836 24.69 8.8 47.8 77 5 41.1
04:45 1007 29.74 836 24.69 8.8 47.9 77 5 41
04:50 1007 29.74 836 24.69 8.9 47.9 77 5.1 41.2
04:55 1007 29.74 836 24.69 8.6 47.6 78 5 41
05:00 1007 29.74 836 24.69 8.6 47.5 77 4.9 40.8
05:05 1007 29.74 836 24.69 8.7 47.7 77 4.9 40.9
05:10 1007 29.74 836 24.69 8.7 47.7 77 4.9 40.8
05:15 1007 29.74 836 24.69 8.8 47.9 76 4.8 40.7
05:20 1007 29.74 836 24.69 8.9 48 76 5 41
05:25 1007 29.74 836 24.69 8.8 47.9 76 4.9 40.8
05:30 1007 29.74 836 24.69 8.8 47.8 76 4.9 40.8
05:35 1007 29.74 836 24.69 8.6 47.4 78 4.9 40.9
05:40 1007 29.74 836 24.69 8.5 47.3 78 4.9 40.8
05:45 1007 29.74 836 24.69 8.6 47.4 77 4.9 40.8
05:50 1007 29.74 836 24.69 8.8 47.8 77 4.9 40.8
05:55 1007 29.74 836 24.69 8.8 47.8 77 4.9 40.9
06:00 1007 29.74 836 24.69 8.7 47.7 77 4.9 40.8
06:05 1007 29.74 836 24.69 8.7 47.7 77 4.9 40.8
06:10 1007 29.74 836 24.69 8.7 47.6 78 5 40.9
06:15 1007 29.74 836 24.69 8.7 47.6 77 4.9 40.8
06:20 1007 29.74 836 24.69 8.6 47.4 78 4.9 40.8
06:25 1007 29.74 836 24.69 8.8 47.8 76 4.8 40.7
06:30 1007 29.74 836 24.69 8.7 47.7 77 4.9 40.8
06:35 1007 29.74 836 24.69 8.5 47.2 78 4.9 40.7
06:40 1007 29.74 836 24.69 8.4 47.2 79 5.1 41.2
06:45 1007 29.74 836 24.69 8.4 47.1 80 5.1 41.2
06:50 1007 29.74 836 24.69 8.3 46.9 81 5.2 41.3
06:55 1007 29.74 836 24.69 8.4 47.1 80 5.1 41.2
07:00 1007 29.74 836 24.69 8.5 47.2 80 5.1 41.3
07:05 1007 29.74 836 24.69 8.5 47.2 80 5.2 41.4
07:10 1007 29.74 836 24.69 8.5 47.4 78 4.8 40.7
07:15 1007 29.74 836 24.69 8.4 47.1 78 4.9 40.8
07:20 1007 29.74 836 24.69 8.6 47.5 77 4.8 40.6
07:25 1007 29.74 836 24.69 8.8 47.8 77 4.9 40.8
07:30 1007 29.74 836 24.69 8.8 47.9 76 4.9 40.9
07:35 1007 29.74 836 24.69 8.6 47.5 77 4.9 40.8
07:40 1007 29.74 836 24.69 8.5 47.3 78 4.8 40.7
07:45 1007 29.74 836 24.69 8.5 47.3 78 4.9 40.8
07:50 1007 29.74 836 24.69 8.4 47.1 80 5.1 41.2
07:55 1007 29.74 836 24.69 8.4 47 80 5.1 41.1
08:00 1007 29.74 836 24.69 8.7 47.6 78 5.1 41.2
08:05 1007 29.74 836 24.69 8.9 48 77 5.1 41.2
08:10 1007 29.74 836 24.69 9 48.2 77 5.1 41.2
08:15 1007 29.74 836 24.69 9.1 48.4 77 5.2 41.4
08:20 1007 29.74 836 24.69 9.2 48.5 76 5.2 41.4
08:25 1007 29.74 836 24.69 9.1 48.4 77 5.2 41.4
08:30 1007 29.74 836 24.69 9 48.1 77 5.1 41.3
08:35 1007 29.74 836 24.69 9 48.1 77 5.2 41.3
08:40 1007 29.74 836 24.69 9 48.3 77 5.2 41.4
08:45 1007 29.74 836 24.69 9.1 48.5 77 5.3 41.5
08:50 1007 29.74 836 24.69 9.1 48.4 76 5.2 41.3
08:55 1007 29.74 836 24.69 9.2 48.6 76 5.2 41.4
09:00 1007 29.74 836 24.69 9.2 48.5 76 5.2 41.4
09:05 1007 29.74 836 24.69 9.3 48.7 75 5.2 41.3
09:10 1007 29.74 836 24.69 9 48.3 77 5.2 41.3
09:15 1006 29.71 836 24.69 9.2 48.6 75 5.1 41.2
09:20 1006 29.71 836 24.69 9.5 49.2 75 5.3 41.5
09:25 1006 29.71 835 24.66 9.6 49.3 74 5.3 41.6
09:30 1006 29.71 835 24.66 9.7 49.4 74 5.3 41.5
09:35 1006 29.71 835 24.66 9.6 49.2 74 5.3 41.5
09:40 1006 29.71 836 24.69 9.7 49.4 74 5.2 41.4
09:45 1006 29.71 836 24.69 9.9 49.8 73 5.3 41.6
09:50 1006 29.71 836 24.69 9.9 49.8 73 5.3 41.6
09:55 1006 29.71 836 24.69 9.9 49.7 73 5.3 41.5
10:00 1006 29.71 836 24.69 9.4 49 75 5.3 41.5
10:05 1006 29.71 835 24.66 9.4 48.9 74 5.1 41.2
10:10 1006 29.71 835 24.66 9.6 49.2 75 5.3 41.5
10:15 1006 29.71 835 24.66 9.9 49.7 74 5.4 41.7
10:20 1006 29.71 835 24.66 10.3 50.5 71 5.2 41.4
10:25 1006 29.71 835 24.66 10.5 51 70 5.4 41.8
10:30 1006 29.71 835 24.66 11 51.9 68 5.4 41.7
10:35 1006 29.71 835 24.66 10.9 51.6 69 5.5 41.9
10:40 1006 29.71 835 24.66 10.8 51.4 71 5.7 42.2
10:45 1006 29.71 835 24.66 10.2 50.3 73 5.5 41.9
10:50 1006 29.71 835 24.66 9.6 49.3 75 5.5 41.9
10:55 1006 29.71 835 24.66 9.8 49.6 74 5.4 41.8
11:00 1006 29.71 835 24.66 9.7 49.4 74 5.3 41.5
11:05 1006 29.71 835 24.66 10.1 50.1 73 5.4 41.7
11:10 1006 29.71 835 24.66 10.1 50.3 73 5.6 42.1
11:15 1006 29.71 835 24.66 10.3 50.6 72 5.4 41.8
11:20 1006 29.71 835 24.66 10.6 51.2 71 5.6 42.1
11:25 1006 29.71 835 24.66 10.6 51.1 70 5.5 41.9
11:30 1006 29.71 835 24.66 10.4 50.8 72 5.6 42.1
11:35 1006 29.71 835 24.66 10.5 50.9 72 5.6 42.1
11:40 1006 29.71 835 24.66 10.4 50.8 71 5.5 41.9
11:45 1006 29.71 835 24.66 10.4 50.7 72 5.5 42
11:50 1006 29.71 835 24.66 10.6 51.1 70 5.3 41.6
11:55 1006 29.71 835 24.66 11 51.7 69 5.5 42
12:00 1006 29.71 835 24.66 11.1 52 68 5.6 42
12:05 1006 29.71 835 24.66 10.8 51.4 70 5.6 42
12:10 1006 29.71 835 24.66 10.7 51.3 69 5.4 41.7
12:15 1006 29.71 835 24.66 10.6 51 71 5.6 42.1
12:20 1006 29.71 835 24.66 10.5 50.9 70 5.3 41.6
12:25 1006 29.71 835 24.66 10.7 51.3 70 5.4 41.8
12:30 1005 29.68 835 24.66 11.1 52 69 5.7 42.3
12:35 1005 29.68 835 24.66 11.6 52.9 66 5.5 41.9
12:40 1005 29.68 835 24.66 11.8 53.2 66 5.7 42.2
12:45 1005 29.68 835 24.66 11.5 52.6 68 5.7 42.3
12:50 1005 29.68 835 24.66 11.4 52.6 68 5.7 42.3
12:55 1005 29.68 835 24.66 11.4 52.4 68 5.8 42.4
13:00 1005 29.68 835 24.66 10.9 51.6 70 5.7 42.3
13:05 1005 29.68 834 24.63 11.2 52.1 68 5.6 42.1
13:10 1005 29.68 834 24.63 11.1 52 69 5.7 42.2
13:15 1005 29.68 834 24.63 11.3 52.4 67 5.6 42
13:20 1005 29.68 834 24.63 11.2 52.1 68 5.6 42
13:25 1005 29.68 834 24.63 11.4 52.5 67 5.6 42
13:30 1005 29.68 834 24.63 11.6 52.8 67 5.7 42.3
13:35 1005 29.68 835 24.66 11.7 53 67 5.8 42.5
13:40 1005 29.68 835 24.66 11.2 52.1 70 5.9 42.6
13:45 1006 29.71 835 24.66 10.9 51.7 72 6.1 42.9
13:50 1006 29.71 835 24.66 10.8 51.4 73 6.2 43.1
13:55 1006 29.71 835 24.66 10.5 50.9 75 6.3 43.4
14:00 1006 29.71 835 24.66 9.8 49.6 84 7.3 45.1
14:05 1006 29.71 835 24.66 9.1 48.4 88 7.2 44.9
14:10 1006 29.71 835 24.66 8.7 47.6 87 6.7 44
14:15 1006 29.71 835 24.66 8.2 46.7 91 6.7 44.1
14:20 1006 29.71 835 24.66 8 46.4 90 6.4 43.5
14:25 1006 29.71 835 24.66 7.8 46.1 91 6.5 43.7
14:30 1006 29.71 835 24.66 7.8 46.1 92 6.6 43.8
14:35 1006 29.71 835 24.66 7.6 45.8 90 6.2 43.1
14:40 1006 29.71 835 24.66 7.5 45.4 93 6.3 43.4
14:45 1006 29.71 835 24.66 7.3 45.2 94 6.5 43.6
14:50 1006 29.71 835 24.66 7.3 45.1 94 6.4 43.6
14:55 1006 29.71 835 24.66 7.3 45.1 95 6.5 43.7
15:00 1006 29.71 835 24.66 7.2 44.9 95 6.4 43.5
15:05 1006 29.71 835 24.66 7.2 44.9 95 6.4 43.6
15:10 1006 29.71 835 24.66 7.2 44.9 95 6.5 43.7
15:15 1006 29.71 835 24.66 7.1 44.8 96 6.5 43.7
15:20 1006 29.71 835 24.66 7.1 44.8 96 6.5 43.6
15:25 1006 29.71 835 24.66 7 44.6 95 6.3 43.4
15:30 1006 29.71 835 24.66 7 44.7 94 6.2 43.2
15:35 1006 29.71 835 24.66 7.1 44.7 93 6 42.7
15:40 1006 29.71 835 24.66 7.1 44.8 93 6.1 42.9
15:45 1006 29.71 835 24.66 7.3 45.1 92 6.1 42.9
15:50 1006 29.71 835 24.66 7.3 45.2 91 6 42.7
15:55 1006 29.71 835 24.66 7.4 45.3 91 6 42.8
16:00 1006 29.71 835 24.66 7.4 45.4 91 6.1 43
16:05 1006 29.71 835 24.66 7.5 45.4 91 6.1 43
16:10 1006 29.71 835 24.66 7.5 45.5 92 6.3 43.4
16:15 1006 29.71 835 24.66 7.6 45.6 92 6.4 43.5
16:20 1006 29.71 835 24.66 7.7 45.8 92 6.4 43.6
16:25 1006 29.71 835 24.66 7.7 45.8 92 6.5 43.6
16:30 1006 29.71 835 24.66 7.7 45.8 92 6.4 43.6
16:35 1006 29.71 835 24.66 7.6 45.8 93 6.5 43.7
16:40 1006 29.71 835 24.66 7.7 45.9 93 6.7 44.1
16:45 1006 29.71 835 24.66 7.8 46.1 93 6.8 44.3
16:50 1006 29.71 835 24.66 7.8 46.1 94 6.8 44.3
16:55 1005 29.68 835 24.66 7.9 46.1 93 6.9 44.3
17:00 1006 29.71 835 24.66 7.9 46.2 93 6.8 44.2
17:05 1006 29.71 835 24.66 7.9 46.2 92 6.7 44.1
17:10 1006 29.71 835 24.66 8 46.3 92 6.7 44.1
17:15 1006 29.71 835 24.66 8 46.4 91 6.7 44.1
17:20 1006 29.71 835 24.66 8.1 46.5 92 6.9 44.4
17:25 1006 29.71 835 24.66 8.1 46.6 92 6.9 44.4
17:30 1006 29.71 835 24.66 8.1 46.6 92 6.9 44.5
17:35 1006 29.71 835 24.66 8.1 46.6 91 6.7 44.1
17:40 1006 29.71 835 24.66 8.1 46.6 91 6.7 44.1
17:45 1006 29.71 835 24.66 8.1 46.6 89 6.4 43.5
17:50 1006 29.71 835 24.66 8.1 46.6 89 6.5 43.7
17:55 1006 29.71 835 24.66 8.1 46.6 90 6.6 43.9
18:00 1006 29.71 835 24.66 8.2 46.7 90 6.6 43.9
18:05 1006 29.71 835 24.66 8.2 46.7 89 6.5 43.7
18:10 1006 29.71 835 24.66 8.2 46.8 90 6.6 44
18:15 1006 29.71 835 24.66 8.2 46.7 90 6.6 43.9
18:20 1006 29.71 835 24.66 8.2 46.7 90 6.6 43.9
18:25 1006 29.71 835 24.66 8.1 46.6 90 6.5 43.8
18:30 1006 29.71 836 24.69 8.1 46.6 88 6.3 43.3
18:35 1006 29.71 836 24.69 8.2 46.7 85 5.8 42.4
18:40 1007 29.74 836 24.69 8.2 46.7 86 5.9 42.7
18:45 1006 29.71 836 24.69 8.2 46.7 87 6.2 43.1
18:50 1006 29.71 836 24.69 8.1 46.7 87 6.1 43
18:55 1006 29.71 836 24.69 8.1 46.6 87 6 42.9
19:00 1006 29.71 836 24.69 8.1 46.5 85 5.8 42.4
19:05 1006 29.71 836 24.69 8.1 46.6 85 5.7 42.2
19:10 1006 29.71 836 24.69 8.1 46.6 86 5.9 42.5
19:15 1007 29.74 836 24.69 8 46.5 87 5.9 42.7
19:20 1007 29.74 836 24.69 8 46.4 87 6 42.8
19:25 1006 29.71 836 24.69 7.9 46.3 89 6.2 43.1
19:30 1006 29.71 836 24.69 7.9 46.3 89 6.2 43.1
19:35 1006 29.71 836 24.69 7.9 46.3 90 6.5 43.6
19:40 1006 29.71 835 24.66 8 46.4 92 6.8 44.3
19:45 1006 29.71 836 24.69 8.3 46.9 92 7 44.5
19:50 1006 29.71 836 24.69 8.5 47.3 92 7.3 45.1
19:55 1007 29.74 836 24.69 8.5 47.3 92 7.4 45.2
20:00 1006 29.71 836 24.69 8.3 46.9 92 7.1 44.8
20:05 1006 29.71 836 24.69 8.1 46.6 93 7 44.5
20:10 1006 29.71 836 24.69 7.9 46.3 93 6.9 44.4
20:15 1006 29.71 836 24.69 7.8 46 94 6.8 44.3
20:20 1007 29.74 836 24.69 7.6 45.7 95 6.8 44.3
20:25 1007 29.74 836 24.69 7.6 45.7 94 6.8 44.2
20:30 1007 29.74 836 24.69 7.5 45.5 94 6.6 43.8
20:35 1007 29.74 836 24.69 7.2 45 94 6.3 43.4
20:40 1007 29.74 836 24.69 6.9 44.5 95 6.1 43
20:45 1007 29.74 836 24.69 6.8 44.3 95 6 42.9
20:50 1007 29.74 836 24.69 6.8 44.3 94 5.9 42.6
20:55 1007 29.74 836 24.69 6.7 44 94 5.8 42.4
21:00 1007 29.74 836 24.69 6.5 43.6 95 5.7 42.2
21:05 1007 29.74 836 24.69 6.5 43.6 95 5.7 42.3
21:10 1007 29.74 837 24.72 6.4 43.5 95 5.6 42
21:15 1007 29.74 836 24.69 6.1 42.9 95 5.4 41.7
21:20 1007 29.74 837 24.72 6.1 43 95 5.4 41.8
21:25 1007 29.74 837 24.72 6 42.9 95 5.3 41.6
21:30 1007 29.74 837 24.72 5.9 42.7 96 5.3 41.5
21:35 1007 29.74 837 24.72 5.9 42.6 95 5.2 41.3
21:40 1007 29.74 837 24.72 5.7 42.2 96 5.1 41.1
21:45 1007 29.74 837 24.72 5.8 42.4 95 5.1 41.1
21:50 1007 29.74 837 24.72 5.9 42.6 95 5.1 41.2
21:55 1007 29.74 837 24.72 5.9 42.6 95 5.1 41.1
22:00 1007 29.74 837 24.72 5.8 42.5 94 5 41
22:05 1007 29.74 837 24.72 5.8 42.4 95 5 40.9
22:10 1008 29.77 837 24.72 5.8 42.4 95 5 40.9
22:15 1008 29.77 837 24.72 5.7 42.2 95 5 41
22:20 1008 29.77 837 24.72 5.5 41.9 96 4.9 40.7
22:25 1008 29.77 837 24.72 5.5 41.8 95 4.7 40.5
22:30 1008 29.77 837 24.72 5.3 41.5 96 4.6 40.4
22:35 1008 29.77 837 24.72 5.2 41.4 96 4.6 40.2
22:40 1008 29.77 837 24.72 5.2 41.4 96 4.6 40.2
22:45 1008 29.77 837 24.72 5.2 41.3 95 4.5 40.1
22:50 1008 29.77 837 24.72 5.3 41.5 95 4.5 40.1
22:55 1008 29.77 837 24.72 5.4 41.8 94 4.5 40.2
23:00 1008 29.77 837 24.72 5.5 41.8 94 4.6 40.3
23:05 1008 29.77 837 24.72 5.5 41.8 93 4.5 40
23:10 1008 29.77 837 24.72 5.3 41.5 94 4.4 39.9
23:15 1008 29.77 837 24.72 5.3 41.6 94 4.4 39.9
23:20 1008 29.77 837 24.72 5.3 41.6 94 4.4 40
23:25 1008 29.77 837 24.72 5.1 41.2 95 4.4 40
23:30 1008 29.77 837 24.72 5.1 41.2 94 4.3 39.7
23:35 1008 29.77 837 24.72 5.1 41.1 93 4 39.3
23:40 1008 29.77 837 24.72 4.9 40.9 93 3.9 39.1
23:45 1008 29.77 837 24.72 4.9 40.8 94 3.9 39.1
23:50 1008 29.77 837 24.72 4.8 40.6 94 3.8 38.9
23:55 1008 29.77 837 24.72 4.6 40.3 95 3.9 39
24:00 1008 29.77 837 24.72 4.5 40.2 95 3.8 38.8